TimeCDT,TemperatureF,Dew PointF,Humidity,Sea Level PressureIn,VisibilityMPH,Wind Direction,Wind SpeedMPH,Gust SpeedMPH,PrecipitationIn,Events,Conditions,WindDirDegrees,DateUTC
12:53 AM,81.0,69.1,67,29.93,10.0,SSE,8.1,-,N/A,,Clear,150,2013-07-29 05:53:00
1:53 AM,79.0,71.1,77,29.93,9.0,SSE,8.1,17.3,N/A,,Scattered Clouds,160,2013-07-29 06:53:00
2:53 AM,78.1,72.0,81,29.93,8.0,SSE,9.2,18.4,N/A,,Mostly Cloudy,160,2013-07-29 07:53:00
3:53 AM,79.0,72.0,79,29.93,8.0,SSE,9.2,16.1,N/A,,Overcast,160,2013-07-29 08:53:00
4:53 AM,79.0,72.0,79,29.94,8.0,South,6.9,-,N/A,,Overcast,170,2013-07-29 09:53:00
5:53 AM,78.1,72.0,81,29.94,8.0,South,9.2,-,N/A,,Mostly Cloudy,180,2013-07-29 10:53:00
6:19 AM,77.0,72.0,84,30.01,8.0,South,9.2,-,N/A,,Scattered Clouds,180,2013-07-29 11:19:00
6:53 AM,77.0,72.0,84,29.96,6.0,South,5.8,-,N/A,,Haze,170,2013-07-29 11:53:00
7:49 AM,77.0,71.6,83,30.03,7.0,South,8.1,-,N/A,,Mostly Cloudy,170,2013-07-29 12:49:00
7:53 AM,77.0,72.0,84,29.98,6.0,South,8.1,-,N/A,,Haze,170,2013-07-29 12:53:00
8:53 AM,78.1,71.1,79,29.99,7.0,South,11.5,-,N/A,,Mostly Cloudy,180,2013-07-29 13:53:00
9:53 AM,80.1,71.1,74,30.00,7.0,SSW,11.5,20.7,N/A,,Overcast,200,2013-07-29 14:53:00
10:49 AM,82.4,69.8,66,30.05,8.0,South,13.8,20.7,N/A,,Scattered Clouds,180,2013-07-29 15:49:00
10:53 AM,82.9,70.0,65,29.99,7.0,South,12.7,19.6,N/A,,Scattered Clouds,190,2013-07-29 15:53:00
11:53 AM,84.9,70.0,61,30.00,9.0,South,12.7,-,N/A,,Partly Cloudy,180,2013-07-29 16:53:00
12:53 PM,89.1,66.9,48,29.99,9.0,South,12.7,23.0,N/A,,Clear,180,2013-07-29 17:53:00
1:53 PM,91.0,64.9,42,29.98,10.0,South,15.0,23.0,N/A,,Clear,180,2013-07-29 18:53:00
2:53 PM,93.0,62.1,36,29.96,10.0,South,15.0,23.0,N/A,,Clear,180,2013-07-29 19:53:00
3:53 PM,93.9,60.1,32,29.95,8.0,South,15.0,21.9,N/A,,Clear,170,2013-07-29 20:53:00
4:53 PM,95.0,61.0,32,29.94,10.0,South,10.4,17.3,N/A,,Clear,170,2013-07-29 21:53:00
5:53 PM,95.0,60.1,31,29.93,10.0,SSE,10.4,21.9,N/A,,Clear,160,2013-07-29 22:53:00
6:53 PM,93.0,63.0,37,29.92,10.0,SSE,13.8,18.4,N/A,,Clear,150,2013-07-29 23:53:00
7:53 PM,91.0,61.0,36,29.93,10.0,SSE,8.1,-,N/A,,Clear,160,2013-07-30 00:53:00
8:53 PM,88.0,61.0,40,29.96,10.0,South,11.5,18.4,N/A,,Clear,170,2013-07-30 01:53:00
9:53 PM,86.0,64.9,49,29.99,10.0,South,10.4,21.9,N/A,,Clear,170,2013-07-30 02:53:00
10:53 PM,84.0,64.9,53,30.00,10.0,South,11.5,21.9,N/A,,Clear,170,2013-07-30 03:53:00
11:53 PM,81.0,66.9,62,30.01,10.0,South,9.2,-,N/A,,Clear,170,2013-07-30 04:53:00